Главная страница
METAR-TAF:

METAR-TAF

Аэропорты :

Международный аэропорт имени Хосе Марти

Гавана, Куба

широта: 22-59N, долгота: 082-24W, высота над уровнем моря: 59 м

Текущие метеонаблюдения

Эта сводка был подготовлена 54 минут назад, в 09:55 UTC
Ветер 2 Узел от восточно-северо-восточный
Температура 19°C
Влажность 94%
Давление 1017 hPa
Видимость: 9000 м
небольшая облачность на высоте 3000 фута

METAR: MUHA 250955Z 07002KT 9000 FEW030 19/18 Q1017

Время: 06:49 (10:49 UTC)

Прогноз

Эта сводка был подготовлена 5 часа и 49 минут назад, в 05:00 UTC
Прогноз действительный с 25-го 06 UTC до 26-го 06 UTC
Ветер 7 Узел от восточно-северо-восточный
Видимость: 9000 м
небольшая облачность на высоте 3000 фута

TAF: MUHA 250500Z 2506/2606 07007KT 9000 FEW030

Метеонаблюдения и прогнозы для более 4000 аэропортов (сводки METAR и TAF).

Имеющиеся станции представлены на карте желтыми и красными точками.

Чтобы увидеть название станции, наведите на нее мышь.

Затем щелкните, чтобы увидеть метеонаблюдения и метеопрогнозы.

Управление картой: чтобы увеличить масштаб, щелкните зеленые кнопки с черным крестиком; чтобы уменьшить масштаб, щелкните зеленую кнопку с тире; для просмотра соседних карт щелкайте зеленые стрелки.


METAR-TAF: